createdAt,value
2022-12-15T00:01:22.077Z,2.60
2022-12-15T00:04:27.172Z,2.50
2022-12-15T00:07:34.065Z,2.50
2022-12-15T00:10:39.513Z,2.70
2022-12-15T00:13:46.106Z,2.50
2022-12-15T00:16:51.620Z,2.50
2022-12-15T00:19:59.061Z,2.50
2022-12-15T00:23:04.709Z,2.50
2022-12-15T00:26:12.146Z,2.50
2022-12-15T00:29:17.677Z,2.70
2022-12-15T00:32:25.063Z,2.50
2022-12-15T00:35:30.338Z,2.50
2022-12-15T00:38:37.119Z,2.50
2022-12-15T00:41:23.842Z,2.50
2022-12-15T00:44:15.849Z,2.50
2022-12-15T00:47:05.805Z,2.50
2022-12-15T00:50:13.068Z,2.50
2022-12-15T00:53:18.560Z,2.50
2022-12-15T00:56:26.150Z,2.50
2022-12-15T00:59:31.617Z,2.50
2022-12-15T01:02:38.163Z,2.50
2022-12-15T01:05:43.418Z,2.50
2022-12-15T01:08:50.085Z,2.50
2022-12-15T01:11:55.403Z,2.50
2022-12-15T01:15:02.016Z,2.50
2022-12-15T01:18:07.212Z,2.50
2022-12-15T01:20:59.034Z,2.50
2022-12-15T01:23:45.708Z,2.50
2022-12-15T01:26:34.020Z,2.50
2022-12-15T01:29:20.720Z,2.60
2022-12-15T01:32:09.042Z,2.50
2022-12-15T01:34:55.810Z,2.50
2022-12-15T01:37:44.040Z,2.50
2022-12-15T01:40:46.027Z,2.50
2022-12-15T01:43:36.143Z,2.50
2022-12-15T01:46:24.775Z,2.50
2022-12-15T01:49:18.073Z,2.90
2022-12-15T01:52:06.798Z,2.50
2022-12-15T01:54:57.027Z,2.40
2022-12-15T01:57:43.794Z,2.40
2022-12-15T02:00:32.156Z,2.40
2022-12-15T02:03:19.309Z,2.40
2022-12-15T02:06:08.004Z,2.40
2022-12-15T02:08:55.828Z,2.40
2022-12-15T02:11:59.133Z,2.40
2022-12-15T02:14:51.987Z,2.50
2022-12-15T02:17:44.040Z,2.40
2022-12-15T02:20:30.746Z,2.40
2022-12-15T02:23:32.365Z,2.40
2022-12-15T02:26:45.638Z,2.40
2022-12-15T02:29:43.018Z,2.50
2022-12-15T02:32:37.601Z,2.40
2022-12-15T02:35:39.997Z,2.40
2022-12-15T02:38:30.958Z,2.40
2022-12-15T02:41:36.126Z,2.40
2022-12-15T02:44:29.088Z,2.50
2022-12-15T02:47:23.011Z,2.40
2022-12-15T02:50:09.652Z,2.40
2022-12-15T02:53:03.082Z,2.40
2022-12-15T02:55:50.333Z,2.40
2022-12-15T02:58:43.091Z,2.40
2022-12-15T03:01:33.284Z,2.40
2022-12-15T03:04:20.407Z,2.40
2022-12-15T03:07:09.146Z,2.30
2022-12-15T03:09:57.480Z,2.80
2022-12-15T03:12:45.193Z,2.40
2022-12-15T03:15:35.469Z,2.40
2022-12-15T03:18:22.647Z,2.40
2022-12-15T03:21:09.393Z,2.40
2022-12-15T03:23:56.113Z,2.40
2022-12-15T03:26:43.862Z,2.40
2022-12-15T03:29:30.674Z,2.40
2022-12-15T03:32:17.451Z,2.40
2022-12-15T03:35:04.411Z,2.60
2022-12-15T03:37:51.119Z,2.40
2022-12-15T03:40:37.786Z,2.40
2022-12-15T03:43:24.493Z,2.40
2022-12-15T03:46:11.174Z,2.30
2022-12-15T03:48:58.623Z,2.30
2022-12-15T03:51:45.302Z,2.30
2022-12-15T03:54:32.008Z,2.30
2022-12-15T03:57:18.690Z,2.30
2022-12-15T04:00:05.917Z,2.70
2022-12-15T04:02:52.955Z,2.40
2022-12-15T04:05:40.056Z,2.70
2022-12-15T04:08:27.754Z,2.40
2022-12-15T04:11:14.645Z,2.30
2022-12-15T04:14:01.313Z,2.70
2022-12-15T04:16:48.074Z,2.30
2022-12-15T04:19:53.500Z,2.60
2022-12-15T04:22:41.585Z,2.30
2022-12-15T04:25:46.971Z,2.30
2022-12-15T04:28:52.514Z,2.30
2022-12-15T04:31:57.658Z,2.30
2022-12-15T04:35:03.172Z,2.30
2022-12-15T04:38:08.503Z,2.20
2022-12-15T04:41:13.740Z,2.30
2022-12-15T04:44:19.167Z,2.20
2022-12-15T04:47:24.877Z,2.30
2022-12-15T04:50:30.298Z,2.30
2022-12-15T04:53:36.505Z,2.30
2022-12-15T04:56:41.543Z,2.20
2022-12-15T04:59:46.833Z,2.20
2022-12-15T05:02:52.111Z,2.20
2022-12-15T05:05:57.224Z,2.30
2022-12-15T05:09:02.319Z,2.20
2022-12-15T05:12:07.426Z,2.20
2022-12-15T05:15:12.925Z,2.20
2022-12-15T05:18:18.248Z,2.10
2022-12-15T05:21:24.055Z,2.20
2022-12-15T05:24:29.287Z,2.10
2022-12-15T05:27:34.663Z,2.10
2022-12-15T05:30:40.232Z,2.10
2022-12-15T05:33:27.093Z,2.10
2022-12-15T05:36:13.858Z,2.10
2022-12-15T05:39:00.559Z,2.10
2022-12-15T05:41:47.321Z,2.00
2022-12-15T05:44:34.217Z,2.00
2022-12-15T05:47:20.967Z,2.00
2022-12-15T05:50:08.031Z,2.00
2022-12-15T05:52:55.731Z,2.00
2022-12-15T05:55:42.415Z,2.60
2022-12-15T05:58:29.235Z,2.00
2022-12-15T06:01:17.206Z,2.10
2022-12-15T06:04:04.098Z,2.10
2022-12-15T06:06:50.790Z,2.10
2022-12-15T06:09:37.489Z,2.10
2022-12-15T06:12:24.171Z,2.10
2022-12-15T06:15:11.041Z,2.50
2022-12-15T06:17:57.779Z,2.10
2022-12-15T06:20:44.514Z,2.10
2022-12-15T06:23:36.346Z,2.00
2022-12-15T06:26:26.136Z,2.00
2022-12-15T06:29:13.388Z,2.00
2022-12-15T06:32:00.284Z,2.00
2022-12-15T06:34:47.841Z,2.00
2022-12-15T06:37:34.526Z,2.00
2022-12-15T06:40:21.238Z,2.00
2022-12-15T06:43:08.113Z,2.00
2022-12-15T06:45:55.183Z,2.00
2022-12-15T06:48:45.023Z,2.00
2022-12-15T06:51:32.752Z,2.00
2022-12-15T06:54:19.629Z,2.00
2022-12-15T06:57:06.320Z,2.00
2022-12-15T06:59:53.082Z,2.00
2022-12-15T07:02:41.617Z,2.00
2022-12-15T07:05:28.456Z,2.00
2022-12-15T07:08:16.122Z,2.00
2022-12-15T07:11:03.444Z,2.00
2022-12-15T07:13:51.125Z,2.00
2022-12-15T07:16:38.122Z,2.00
2022-12-15T07:19:24.929Z,2.00
2022-12-15T07:22:11.660Z,2.00
2022-12-15T07:24:58.379Z,2.00
2022-12-15T07:27:45.693Z,1.90
2022-12-15T07:30:38.437Z,2.00
2022-12-15T07:33:26.247Z,2.00
2022-12-15T07:36:13.273Z,2.00
2022-12-15T07:39:04.945Z,2.30
2022-12-15T07:41:51.638Z,2.00
2022-12-15T07:44:38.572Z,2.00
2022-12-15T07:47:25.216Z,2.00
2022-12-15T07:50:11.870Z,2.00
2022-12-15T07:52:58.532Z,2.10
2022-12-15T07:56:06.440Z,2.10
2022-12-15T07:58:51.874Z,2.30
2022-12-15T08:01:38.591Z,2.10
2022-12-15T08:04:25.308Z,2.30
2022-12-15T08:07:12.056Z,2.10
2022-12-15T08:09:58.690Z,2.20
2022-12-15T08:12:45.323Z,2.20
2022-12-15T08:15:31.984Z,2.20
2022-12-15T08:18:19.547Z,2.20
2022-12-15T08:21:08.102Z,2.20
2022-12-15T08:23:55.097Z,2.20
2022-12-15T08:26:42.681Z,2.20
2022-12-15T08:32:35.918Z,2.30
2022-12-15T08:35:55.235Z,2.70
2022-12-15T08:38:33.431Z,2.20
2022-12-15T08:41:23.055Z,2.20
2022-12-15T08:44:09.687Z,2.20
2022-12-15T08:46:56.385Z,2.20
2022-12-15T08:49:43.080Z,2.20
2022-12-15T08:52:29.784Z,2.20
2022-12-15T08:55:22.118Z,2.20
2022-12-15T08:58:09.170Z,2.20
2022-12-15T09:00:59.910Z,2.20
2022-12-15T09:03:46.718Z,2.20
2022-12-15T09:06:36.510Z,2.20
2022-12-15T09:09:23.225Z,2.20
2022-12-15T09:12:11.503Z,2.20
2022-12-15T09:14:58.181Z,2.60
2022-12-15T09:17:45.359Z,2.20
2022-12-15T09:20:32.075Z,2.30
2022-12-15T09:23:18.720Z,2.30
2022-12-15T09:26:06.711Z,2.30
2022-12-15T09:28:54.790Z,2.30
2022-12-15T09:31:44.628Z,2.30
2022-12-15T09:34:31.303Z,2.40
2022-12-15T09:37:18.579Z,2.30
2022-12-15T09:40:06.614Z,2.70
2022-12-15T09:43:25.688Z,2.40
2022-12-15T09:46:09.019Z,2.40
2022-12-15T09:48:57.323Z,2.40
2022-12-15T09:51:47.204Z,2.40
2022-12-15T09:54:34.272Z,2.50
2022-12-15T09:57:23.969Z,2.50
2022-12-15T10:00:16.703Z,2.60
2022-12-15T10:03:29.128Z,2.60
2022-12-15T10:06:22.057Z,2.50
2022-12-15T10:09:18.762Z,2.60
2022-12-15T10:12:24.019Z,2.60
2022-12-15T10:15:16.919Z,2.60
2022-12-15T10:18:11.439Z,2.60
2022-12-15T10:20:59.863Z,2.50
2022-12-15T10:23:48.286Z,2.50
2022-12-15T10:26:37.187Z,2.50
2022-12-15T10:29:24.353Z,2.50
2022-12-15T10:32:23.199Z,2.50
2022-12-15T10:35:17.606Z,2.60
2022-12-15T10:38:05.208Z,2.60
2022-12-15T10:40:57.783Z,2.60
2022-12-15T10:43:45.388Z,2.60
2022-12-15T10:46:34.990Z,2.70
2022-12-15T10:49:23.399Z,2.60
2022-12-15T10:52:23.808Z,2.70
2022-12-15T10:55:29.238Z,2.70
2022-12-15T10:58:22.817Z,2.80
2022-12-15T11:01:15.284Z,2.80
2022-12-15T11:04:03.958Z,2.80
2022-12-15T11:06:55.614Z,2.90
2022-12-15T11:09:43.809Z,2.90
2022-12-15T11:12:50.489Z,3.30
2022-12-15T11:15:40.906Z,3.40
2022-12-15T11:18:27.632Z,2.90
2022-12-15T11:21:18.789Z,2.90
2022-12-15T11:24:05.420Z,2.90
2022-12-15T11:26:57.809Z,2.90
2022-12-15T11:29:50.149Z,2.90
2022-12-15T11:32:39.764Z,2.90
2022-12-15T11:35:29.389Z,2.90
2022-12-15T11:38:33.837Z,2.90
2022-12-15T11:41:27.388Z,2.90
2022-12-15T11:44:35.826Z,2.90
2022-12-15T11:47:28.725Z,2.90
2022-12-15T11:50:41.752Z,2.40
2022-12-15T11:53:46.765Z,2.90
2022-12-15T11:56:49.772Z,2.80
2022-12-15T12:00:03.714Z,2.80
2022-12-15T12:02:51.944Z,2.80
2022-12-15T12:05:41.667Z,2.90
2022-12-15T12:08:42.797Z,2.70
2022-12-15T12:11:42.424Z,2.70
2022-12-15T12:14:40.767Z,2.70
2022-12-15T12:17:34.395Z,2.60
2022-12-15T12:20:26.765Z,2.60
2022-12-15T12:23:24.428Z,2.50
2022-12-15T12:26:15.710Z,2.50
2022-12-15T12:29:02.477Z,2.50
2022-12-15T12:31:50.896Z,2.50
2022-12-15T12:34:43.492Z,2.70
2022-12-15T12:37:40.756Z,2.50
2022-12-15T12:40:36.725Z,2.50
2022-12-15T12:43:35.287Z,2.50
2022-12-15T12:46:55.690Z,2.50
2022-12-15T12:49:50.215Z,2.50
2022-12-15T12:52:37.980Z,2.50
2022-12-15T12:55:36.741Z,2.60
2022-12-15T12:58:42.139Z,2.50
2022-12-15T13:01:34.990Z,2.50
2022-12-15T13:04:42.196Z,2.60
2022-12-15T13:07:42.720Z,2.60
2022-12-15T13:10:29.351Z,2.50
2022-12-15T13:13:20.750Z,2.50
2022-12-15T13:16:22.468Z,2.40
2022-12-15T13:19:10.788Z,2.30
2022-12-15T13:21:57.448Z,2.40
2022-12-15T13:24:50.456Z,2.30
2022-12-15T13:27:38.341Z,2.20
2022-12-15T13:30:26.749Z,2.20
2022-12-15T13:33:14.828Z,2.20
2022-12-15T13:36:02.735Z,2.20
2022-12-15T13:38:54.357Z,2.60
2022-12-15T13:44:52.609Z,2.30
2022-12-15T13:47:40.690Z,2.20
2022-12-15T13:50:31.021Z,2.20
2022-12-15T13:53:22.736Z,2.20
2022-12-15T13:56:12.388Z,2.40
2022-12-15T13:59:06.698Z,2.20
2022-12-15T14:01:53.730Z,2.20
2022-12-15T14:04:41.713Z,2.10
2022-12-15T14:07:29.082Z,2.20
2022-12-15T14:10:26.678Z,2.10
2022-12-15T14:13:18.484Z,2.10
2022-12-15T14:16:24.838Z,2.00
2022-12-15T14:19:16.235Z,2.00
2022-12-15T14:22:04.671Z,2.00
2022-12-15T14:24:52.004Z,2.00
2022-12-15T14:27:39.684Z,2.00
2022-12-15T14:30:35.520Z,2.00
2022-12-15T14:33:28.092Z,1.90
2022-12-15T14:36:17.894Z,1.90
2022-12-15T14:39:07.750Z,1.90
2022-12-15T14:41:55.250Z,1.90
2022-12-15T14:44:51.358Z,1.80
2022-12-15T14:48:13.715Z,1.80
2022-12-15T14:51:02.690Z,2.00
2022-12-15T14:57:02.690Z,2.20
2022-12-15T14:59:49.455Z,1.70
2022-12-15T15:02:39.892Z,1.70
2022-12-15T15:03:06.093Z,1.80
2022-12-15T15:03:07.530Z,2.30
2022-12-15T15:05:27.831Z,1.70
2022-12-15T15:08:17.677Z,1.60
2022-12-15T15:11:19.368Z,1.60
2022-12-15T15:14:10.704Z,1.60
2022-12-15T15:17:06.034Z,1.60
2022-12-15T15:20:02.682Z,1.60
2022-12-15T15:23:04.444Z,1.60
2022-12-15T15:25:55.672Z,1.60
2022-12-15T15:28:43.371Z,1.60
2022-12-15T15:31:40.851Z,1.60
2022-12-15T15:34:28.237Z,1.60
2022-12-15T15:40:23.970Z,1.60
2022-12-15T15:43:13.668Z,1.60
2022-12-15T15:46:01.584Z,1.60
2022-12-15T15:48:54.677Z,1.60
2022-12-15T15:51:41.343Z,1.60
2022-12-15T15:54:33.654Z,1.60
2022-12-15T15:57:20.308Z,1.60
2022-12-15T16:00:26.690Z,1.60
2022-12-15T16:03:13.574Z,1.60
2022-12-15T16:06:01.661Z,1.60
2022-12-15T16:08:52.195Z,1.60
2022-12-15T16:11:40.680Z,1.60
2022-12-15T16:14:27.284Z,1.60
2022-12-15T16:17:16.656Z,1.60
2022-12-15T16:20:04.525Z,2.10
2022-12-15T16:22:57.629Z,1.50
2022-12-15T16:25:50.557Z,1.60
2022-12-15T16:28:38.654Z,1.60
2022-12-15T16:31:39.098Z,1.50
2022-12-15T16:34:29.695Z,1.50
2022-12-15T16:37:25.382Z,1.50
2022-12-15T16:40:23.517Z,1.50
2022-12-15T16:43:15.136Z,1.50
2022-12-15T16:46:04.379Z,1.50
2022-12-15T16:48:51.776Z,1.40
2022-12-15T16:51:40.209Z,1.40
2022-12-15T16:54:28.408Z,1.40
2022-12-15T16:57:15.416Z,1.40
2022-12-15T17:00:02.249Z,1.50
2022-12-15T17:02:49.251Z,1.50
2022-12-15T17:05:36.255Z,1.40
2022-12-15T17:08:27.738Z,1.40
2022-12-15T17:11:19.014Z,1.40
2022-12-15T17:14:06.763Z,1.40
2022-12-15T17:16:53.925Z,1.40
2022-12-15T17:19:48.214Z,1.40
2022-12-15T17:22:45.766Z,1.40
2022-12-15T17:26:09.280Z,1.30
2022-12-15T17:28:40.950Z,1.30
2022-12-15T17:31:33.173Z,1.30
2022-12-15T17:34:34.740Z,1.30
2022-12-15T17:37:21.402Z,1.30
2022-12-15T17:40:34.477Z,1.30
2022-12-15T17:43:22.748Z,1.40
2022-12-15T17:46:09.436Z,1.40
2022-12-15T17:48:57.088Z,1.40
2022-12-15T17:51:44.357Z,1.40
2022-12-15T17:54:31.155Z,1.30
2022-12-15T17:57:17.872Z,1.30
2022-12-15T18:00:14.885Z,1.40
2022-12-15T18:03:01.819Z,1.30
2022-12-15T18:05:50.177Z,0.80
2022-12-15T18:08:36.869Z,1.90
2022-12-15T18:11:23.600Z,1.30
2022-12-15T18:14:14.659Z,1.30
2022-12-15T18:17:01.297Z,1.70
2022-12-15T18:19:48.017Z,1.20
2022-12-15T18:22:34.783Z,1.20
2022-12-15T18:25:23.225Z,1.30
2022-12-15T18:28:23.929Z,1.30
2022-12-15T18:31:10.598Z,1.20
2022-12-15T18:34:04.043Z,1.20
2022-12-15T18:36:51.583Z,1.20
2022-12-15T18:39:38.356Z,1.20
2022-12-15T18:42:25.098Z,1.20
2022-12-15T18:45:19.498Z,1.20
2022-12-15T18:48:12.935Z,1.20
2022-12-15T18:51:01.352Z,1.20
2022-12-15T18:53:50.918Z,1.20
2022-12-15T18:56:37.574Z,1.20
2022-12-15T18:59:24.173Z,1.20
2022-12-15T19:02:10.914Z,1.20
2022-12-15T19:04:57.600Z,1.70
2022-12-15T19:07:44.424Z,1.20
2022-12-15T19:10:33.214Z,1.20
2022-12-15T19:13:21.329Z,1.20
2022-12-15T19:16:14.533Z,1.20
2022-12-15T19:19:19.887Z,1.70
2022-12-15T19:22:42.395Z,1.20
2022-12-15T19:25:29.587Z,1.20
2022-12-15T19:28:17.534Z,1.20
2022-12-15T19:31:04.396Z,1.20
2022-12-15T19:33:51.140Z,1.20
2022-12-15T19:36:37.837Z,1.20
2022-12-15T19:39:24.614Z,1.80
2022-12-15T19:42:17.766Z,1.30
2022-12-15T19:45:17.994Z,1.20
2022-12-15T19:48:04.759Z,1.30
2022-12-15T19:50:52.252Z,1.20
2022-12-15T19:53:40.818Z,1.30
2022-12-15T19:56:29.827Z,1.30
2022-12-15T19:59:22.416Z,1.20
2022-12-15T20:02:15.544Z,1.20
2022-12-15T20:05:02.657Z,1.20
2022-12-15T20:07:49.390Z,1.20
2022-12-15T20:10:36.044Z,1.30
2022-12-15T20:13:22.824Z,1.30
2022-12-15T20:16:10.583Z,1.20
2022-12-15T20:18:57.358Z,1.30
2022-12-15T20:21:44.066Z,1.30
2022-12-15T20:24:31.802Z,1.30
2022-12-15T20:27:19.319Z,1.30
2022-12-15T20:30:07.231Z,2.00
2022-12-15T20:32:53.995Z,1.30
2022-12-15T20:35:41.075Z,2.00
2022-12-15T20:38:31.977Z,1.30
2022-12-15T20:41:22.725Z,1.20
2022-12-15T20:44:12.245Z,1.20
2022-12-15T20:46:58.850Z,1.30
2022-12-15T20:49:45.856Z,1.30
2022-12-15T20:52:32.589Z,1.30
2022-12-15T20:55:19.686Z,1.60
2022-12-15T20:58:06.307Z,1.30
2022-12-15T21:00:54.812Z,1.20
2022-12-15T21:03:41.910Z,1.20
2022-12-15T21:06:29.249Z,1.20
2022-12-15T21:09:16.000Z,1.20
2022-12-15T21:12:07.447Z,1.20
2022-12-15T21:14:55.907Z,1.20
2022-12-15T21:17:43.106Z,1.30
2022-12-15T21:20:29.826Z,1.20
2022-12-15T21:23:18.681Z,1.20
2022-12-15T21:26:05.429Z,1.20
2022-12-15T21:28:56.312Z,1.10
2022-12-15T21:31:43.295Z,1.20
2022-12-15T21:34:30.146Z,1.20
2022-12-15T21:37:28.175Z,1.20
2022-12-15T21:40:19.917Z,1.10
2022-12-15T21:43:06.608Z,1.20
2022-12-15T21:45:53.422Z,1.20
2022-12-15T21:49:00.349Z,1.30
2022-12-15T21:51:54.865Z,1.30
2022-12-15T21:54:41.791Z,1.20
2022-12-15T21:57:28.674Z,1.20
2022-12-15T22:00:17.341Z,1.20
2022-12-15T22:03:04.098Z,1.20
2022-12-15T22:05:50.774Z,1.10
2022-12-15T22:08:38.331Z,1.10
2022-12-15T22:11:24.989Z,1.10
2022-12-15T22:14:15.714Z,1.10
2022-12-15T22:17:10.708Z,1.10
2022-12-15T22:19:57.415Z,1.60
2022-12-15T22:22:44.606Z,0.60
2022-12-15T22:25:31.320Z,1.10
2022-12-15T22:28:20.604Z,1.10
2022-12-15T22:31:09.162Z,1.10
2022-12-15T22:33:55.954Z,1.00
2022-12-15T22:36:42.970Z,1.00
2022-12-15T22:39:29.655Z,1.30
2022-12-15T22:42:17.217Z,1.00
2022-12-15T22:45:05.212Z,1.10
2022-12-15T22:47:52.414Z,1.10
2022-12-15T22:50:39.087Z,1.10
2022-12-15T22:53:26.995Z,1.10
2022-12-15T22:56:13.656Z,1.10
2022-12-15T22:59:03.126Z,1.00
2022-12-15T23:01:49.920Z,1.10
2022-12-15T23:04:38.460Z,1.10
2022-12-15T23:07:25.374Z,1.10
2022-12-15T23:10:33.493Z,1.10
2022-12-15T23:13:20.403Z,1.00
2022-12-15T23:16:20.520Z,1.00
2022-12-15T23:19:08.374Z,1.00
2022-12-15T23:21:56.516Z,1.00
2022-12-15T23:24:43.335Z,1.00
2022-12-15T23:27:31.489Z,1.10
2022-12-15T23:30:18.236Z,1.10
2022-12-15T23:33:06.649Z,1.10
2022-12-15T23:35:57.154Z,1.10
2022-12-15T23:38:46.522Z,1.10
2022-12-15T23:41:33.262Z,1.00
2022-12-15T23:44:21.515Z,1.00
2022-12-15T23:47:08.284Z,1.10
2022-12-15T23:49:56.491Z,1.00
2022-12-15T23:52:43.123Z,1.00
2022-12-15T23:55:32.480Z,1.00
2022-12-15T23:58:19.587Z,1.00
